UAE69M OMDB-VABB
Flight info
| Callsign | UAE69M |
|---|---|
| Flight time | N/A |
| Altitude | 39000 |
| Route | IVURO M677 LALDO B505 NADSO A777 VAXIM P307 PARAR N571 SUGID KETOR2A |
| Aircraft | A388/J-SADE2E3FGHIJ3J4J5M1RWXY/LB1D1 |
Departure
| Time | N/A |
|---|---|
| Airport | Dubai International Airport (OMDB) |
Arrival
| Time | 2026-05-07 15:12 |
|---|---|
| Airport | Chhatrapati Shivaji Maharaj International Airport (VABB) |
| Time | Latitude | Longitude | Altitude | Speed | Heading |
|---|---|---|---|---|---|
| 2026-05-07 14:49 | 18.82222 | 72.72639 | 9796 ft | 301 kts | 75° |
| 2026-05-07 14:50 | 18.82749 | 72.74788 | 9796 ft | 301 kts | 75° |
| 2026-05-07 14:50 | 18.83275 | 72.76917 | 9795 ft | 301 kts | 75° |
| 2026-05-07 14:50 | 18.83753 | 72.78857 | 9795 ft | 301 kts | 75° |
| 2026-05-07 14:50 | 18.84272 | 72.81001 | 9800 ft | 301 kts | 75° |
| 2026-05-07 14:51 | 18.84799 | 72.83143 | 9792 ft | 302 kts | 75° |
| 2026-05-07 14:51 | 18.85325 | 72.85283 | 9800 ft | 301 kts | 75° |
| 2026-05-07 14:51 | 18.85853 | 72.87418 | 9800 ft | 302 kts | 75° |
| 2026-05-07 14:51 | 18.86383 | 72.89573 | 9801 ft | 302 kts | 75° |
| 2026-05-07 14:52 | 18.86906 | 72.91706 | 9803 ft | 302 kts | 75° |
| 2026-05-07 14:52 | 18.87432 | 72.93860 | 9811 ft | 302 kts | 75° |
| 2026-05-07 14:52 | 18.87958 | 72.96006 | 9810 ft | 302 kts | 75° |
| 2026-05-07 14:52 | 18.88452 | 72.98018 | 9809 ft | 303 kts | 75° |
| 2026-05-07 14:53 | 18.88971 | 73.00143 | 9809 ft | 293 kts | 75° |
| 2026-05-07 14:53 | 18.89465 | 73.02174 | 9817 ft | 283 kts | 75° |
| 2026-05-07 14:53 | 18.89955 | 73.04173 | 9818 ft | 277 kts | 75° |
| 2026-05-07 14:53 | 18.90440 | 73.06145 | 9818 ft | 279 kts | 75° |
| 2026-05-07 14:54 | 18.90928 | 73.08125 | 9819 ft | 279 kts | 75° |
| 2026-05-07 14:54 | 18.91418 | 73.10107 | 9822 ft | 279 kts | 75° |
| 2026-05-07 14:54 | 18.91905 | 73.12092 | 9828 ft | 279 kts | 75° |
| 2026-05-07 14:54 | 18.92392 | 73.14080 | 9825 ft | 280 kts | 75° |
| 2026-05-07 14:55 | 18.92750 | 73.16095 | 9804 ft | 280 kts | 85° |
| 2026-05-07 14:55 | 18.92854 | 73.18133 | 9772 ft | 275 kts | 87° |
| 2026-05-07 14:55 | 18.92942 | 73.20115 | 9748 ft | 263 kts | 87° |
| 2026-05-07 14:55 | 18.93024 | 73.22021 | 9411 ft | 259 kts | 87° |
| 2026-05-07 14:56 | 18.93104 | 73.23928 | 9057 ft | 259 kts | 87° |
| 2026-05-07 14:56 | 18.93182 | 73.25813 | 8731 ft | 257 kts | 86° |
| 2026-05-07 14:56 | 18.93258 | 73.27666 | 8387 ft | 256 kts | 86° |
| 2026-05-07 14:56 | 18.93336 | 73.29577 | 8141 ft | 253 kts | 86° |
| 2026-05-07 14:57 | 18.93410 | 73.31428 | 7947 ft | 252 kts | 86° |
| 2026-05-07 14:57 | 18.93483 | 73.33251 | 7744 ft | 243 kts | 86° |
| 2026-05-07 14:57 | 18.93554 | 73.35028 | 7542 ft | 243 kts | 86° |
| 2026-05-07 14:57 | 18.93625 | 73.36784 | 7340 ft | 236 kts | 86° |
| 2026-05-07 14:58 | 18.93692 | 73.38467 | 7201 ft | 215 kts | 85° |
| 2026-05-07 14:58 | 18.94102 | 73.39835 | 6981 ft | 195 kts | 51° |
| 2026-05-07 14:58 | 18.95160 | 73.40625 | 6873 ft | 187 kts | 12° |
| 2026-05-07 14:58 | 18.96445 | 73.40708 | 6864 ft | 185 kts | 358° |
| 2026-05-07 14:59 | 18.97731 | 73.40708 | 6849 ft | 185 kts | 358° |
| 2026-05-07 14:59 | 18.99029 | 73.40715 | 6862 ft | 185 kts | 358° |
| 2026-05-07 14:59 | 19.00302 | 73.40721 | 6862 ft | 185 kts | 358° |
| 2026-05-07 14:59 | 19.01605 | 73.40725 | 6844 ft | 183 kts | 358° |
| 2026-05-07 15:00 | 19.02822 | 73.40537 | 6598 ft | 178 kts | 338° |
| 2026-05-07 15:00 | 19.03757 | 73.39726 | 6127 ft | 178 kts | 301° |
| 2026-05-07 15:00 | 19.04071 | 73.38475 | 5612 ft | 176 kts | 280° |
| 2026-05-07 15:00 | 19.04203 | 73.37178 | 4964 ft | 180 kts | 278° |
| 2026-05-07 15:01 | 19.04337 | 73.35884 | 4484 ft | 173 kts | 279° |
| 2026-05-07 15:01 | 19.04495 | 73.34635 | 3980 ft | 170 kts | 280° |
| 2026-05-07 15:01 | 19.04674 | 73.33414 | 3640 ft | 167 kts | 281° |
| 2026-05-07 15:01 | 19.04868 | 73.32199 | 3548 ft | 170 kts | 281° |
| 2026-05-07 15:02 | 19.05071 | 73.30965 | 3541 ft | 171 kts | 282° |
| 2026-05-07 15:02 | 19.05275 | 73.29736 | 3496 ft | 168 kts | 282° |
| 2026-05-07 15:02 | 19.05475 | 73.28522 | 3208 ft | 168 kts | 282° |
| 2026-05-07 15:02 | 19.05677 | 73.27313 | 3060 ft | 168 kts | 282° |
| 2026-05-07 15:03 | 19.05881 | 73.26085 | 3024 ft | 170 kts | 282° |
| 2026-05-07 15:03 | 19.06076 | 73.24907 | 2931 ft | 169 kts | 282° |
| 2026-05-07 15:03 | 19.06279 | 73.23693 | 2938 ft | 168 kts | 282° |
| 2026-05-07 15:03 | 19.06490 | 73.22468 | 2934 ft | 169 kts | 282° |
| 2026-05-07 15:04 | 19.06694 | 73.21234 | 2927 ft | 170 kts | 282° |
| 2026-05-07 15:04 | 19.06885 | 73.20048 | 2928 ft | 171 kts | 282° |
| 2026-05-07 15:04 | 19.07081 | 73.18815 | 2926 ft | 170 kts | 282° |
| 2026-05-07 15:04 | 19.07288 | 73.17585 | 2926 ft | 171 kts | 282° |
| 2026-05-07 15:05 | 19.07492 | 73.16364 | 2924 ft | 171 kts | 282° |
| 2026-05-07 15:05 | 19.07698 | 73.15128 | 2919 ft | 171 kts | 282° |
| 2026-05-07 15:05 | 19.07901 | 73.13888 | 2920 ft | 172 kts | 282° |
| 2026-05-07 15:05 | 19.08102 | 73.12646 | 2914 ft | 172 kts | 282° |
| 2026-05-07 15:06 | 19.08303 | 73.11398 | 2914 ft | 172 kts | 283° |
| 2026-05-07 15:06 | 19.08510 | 73.10167 | 2913 ft | 171 kts | 283° |
| 2026-05-07 15:06 | 19.08713 | 73.08959 | 2907 ft | 160 kts | 283° |
| 2026-05-07 15:06 | 19.08917 | 73.07835 | 2904 ft | 153 kts | 284° |
| 2026-05-07 15:07 | 19.09067 | 73.06739 | 2913 ft | 151 kts | 278° |
| 2026-05-07 15:07 | 19.09116 | 73.05634 | 2905 ft | 151 kts | 273° |
| 2026-05-07 15:07 | 19.09117 | 73.04523 | 2907 ft | 152 kts | 271° |
| 2026-05-07 15:07 | 19.09103 | 73.03408 | 2783 ft | 152 kts | 272° |
| 2026-05-07 15:08 | 19.09095 | 73.02299 | 2606 ft | 150 kts | 271° |
| 2026-05-07 15:08 | 19.09072 | 73.01202 | 2405 ft | 148 kts | 272° |
| 2026-05-07 15:08 | 19.09057 | 73.00122 | 2229 ft | 147 kts | 272° |
| 2026-05-07 15:08 | 19.09042 | 72.99048 | 2045 ft | 145 kts | 272° |
| 2026-05-07 15:09 | 19.09030 | 72.98054 | 1880 ft | 146 kts | 271° |
| 2026-05-07 15:09 | 19.09014 | 72.96991 | 1694 ft | 143 kts | 271° |
| 2026-05-07 15:09 | 19.09000 | 72.95947 | 1508 ft | 143 kts | 271° |
| 2026-05-07 15:09 | 19.08987 | 72.94915 | 1335 ft | 142 kts | 270° |
| 2026-05-07 15:10 | 19.08974 | 72.93860 | 1138 ft | 142 kts | 270° |
| 2026-05-07 15:10 | 19.08957 | 72.92812 | 965 ft | 143 kts | 271° |
| 2026-05-07 15:10 | 19.08949 | 72.91794 | 800 ft | 143 kts | 270° |
| 2026-05-07 15:10 | 19.08927 | 72.90767 | 641 ft | 140 kts | 270° |
| 2026-05-07 15:11 | 19.08918 | 72.89725 | 460 ft | 138 kts | 270° |
| 2026-05-07 15:11 | 19.08902 | 72.88712 | 282 ft | 137 kts | 271° |
| 2026-05-07 15:11 | 19.08887 | 72.87723 | 112 ft | 136 kts | 270° |
| 2026-05-07 15:11 | 19.08864 | 72.86744 | 57 ft | 123 kts | 270° |
| 2026-05-07 15:12 | 19.08862 | 72.86044 | 52 ft | 55 kts | 268° |
| 2026-05-07 15:12 | 19.08857 | 72.85836 | 53 ft | 21 kts | 268° |
| 2026-05-07 15:12 | 19.08852 | 72.85686 | 48 ft | 21 kts | 268° |
| 2026-05-07 15:12 | 19.08853 | 72.85533 | 49 ft | 21 kts | 277° |
| 2026-05-07 15:13 | 19.08880 | 72.85394 | 52 ft | 18 kts | 288° |
| 2026-05-07 15:13 | 19.08929 | 72.85280 | 52 ft | 16 kts | 302° |
| 2026-05-07 15:13 | 19.08964 | 72.85241 | 51 ft | 3 kts | 334° |
| 2026-05-07 15:13 | 19.08984 | 72.85231 | 49 ft | 0 kts | 334° |
| 2026-05-07 15:14 | 19.08992 | 72.85228 | 52 ft | 5 kts | 3° |
| 2026-05-07 15:14 | 19.09015 | 72.85246 | 50 ft | 5 kts | 84° |
| 2026-05-07 15:14 | 19.09021 | 72.85307 | 54 ft | 12 kts | 84° |
| 2026-05-07 15:15 | 19.09027 | 72.85420 | 54 ft | 18 kts | 87° |
| 2026-05-07 15:15 | 19.09032 | 72.85575 | 54 ft | 22 kts | 88° |
| 2026-05-07 15:15 | 19.09036 | 72.85724 | 54 ft | 22 kts | 89° |
| 2026-05-07 15:15 | 19.09035 | 72.85896 | 54 ft | 25 kts | 90° |
| 2026-05-07 15:16 | 19.09038 | 72.86074 | 51 ft | 24 kts | 90° |
| 2026-05-07 15:16 | 19.09039 | 72.86244 | 49 ft | 23 kts | 90° |
| 2026-05-07 15:16 | 19.09042 | 72.86422 | 48 ft | 26 kts | 88° |
| 2026-05-07 15:16 | 19.09043 | 72.86608 | 55 ft | 25 kts | 90° |
| 2026-05-07 15:17 | 19.09048 | 72.86789 | 51 ft | 24 kts | 89° |
| 2026-05-07 15:17 | 19.09047 | 72.86968 | 51 ft | 26 kts | 91° |
| 2026-05-07 15:17 | 19.09053 | 72.87168 | 50 ft | 28 kts | 87° |
| 2026-05-07 15:17 | 19.09052 | 72.87363 | 50 ft | 22 kts | 88° |
| 2026-05-07 15:18 | 19.09072 | 72.87436 | 48 ft | 6 kts | 34° |
| 2026-05-07 15:18 | 19.09120 | 72.87440 | 52 ft | 8 kts | 332° |
| 2026-05-07 15:18 | 19.09166 | 72.87391 | 50 ft | 11 kts | 288° |
| 2026-05-07 15:18 | 19.09148 | 72.87290 | 53 ft | 16 kts | 258° |
| 2026-05-07 15:19 | 19.09136 | 72.87169 | 55 ft | 17 kts | 269° |
| 2026-05-07 15:19 | 19.09170 | 72.87087 | 52 ft | 8 kts | 347° |
| 2026-05-07 15:19 | 19.09212 | 72.87101 | 53 ft | 8 kts | 41° |
| 2026-05-07 15:19 | 19.09263 | 72.87139 | 49 ft | 9 kts | 18° |
| 2026-05-07 15:20 | 19.09292 | 72.87141 | 49 ft | 3 kts | 360° |
| 2026-05-07 15:20 | 19.09301 | 72.87141 | 53 ft | 0 kts | 2° |